Airfield :







YOU CAN JOIN US ON...

 
LOGIN :

Register | Disclaimer

   EN    FR    IT 

 









Legend :    VFR   Marginal VFR   IFR   Intensive IFR   Very Intensive IFR
Visi :
Ceiling :
>= 8 km
>= 3000ft
5 to 8 km
1000 to 3000 ft
1500m to 5 km
500 to 1000 ft
800 to 1500m
200 to 500 ft
< 800m
< 200 ft
Symbols :   Thunderstorms  Fog  Heavy snow  Heavy precipitations  Wind > 20 kt






- Airport Elevation : 270 ft
- IATA code : YMX


CYMX - Montreal International Mirabel

CURRENT METAR :
  • 150400Z 26003KT 25SM FEW180 04/02 A2999 RMK AC1 AC TR SLP161

EXPIRED METARs :
  • 150300Z 26005KT 230V290 25SM FEW100 FEW180 05/02 A2999 RMK AC1AC2 AC TR SLP160
  • 150200Z VRB03KT 25SM SKC 06/02 A2999 RMK SLP159

TAF TAF CYMX
Valid from the 15 at 00:00 until the 16 at 00:00 UTC


142338Z 1500/1524 24005KT P6SM FEW040 SCT080
TEMPO 1501/1504 SCT040 BKN080
PROB30 1506/1512 1/2SM FG
FM151500 24008KT P6SM SCT050
BECMG 1516/1518 25012KT RMK NXT FCST BY 150600Z



MET'MAP, your aeronautical weather chart ! - Copyright ORBIFLY December 2007 - Disclaimer

ORBIFLY MET'MAP TEAM :

Programming & Development : Alexandra Zaïnal
Concept & Development : Baudouin d'Aumeries
Co-Development & Prog : Marc-Olivier Méhu
Technical & hardware support : Manuel Goepfert

Contact : metmap@orbifly.com




SOURCES & CREDITS :

   NOAA